In Rescue
 
Open Full Screen Window  High Contrast Mode
Wind Gusting 20 knots
11
February 25, 2021 5:17 PM EST
Weather Information
Wind Direction
  250 °
Wind Speed
  11 kt (13 mph)
Wind Gust
  20 kt (23 mph)
Altimeter
30.04 in
Visibility
10 SM
Temperature
-05° C
23° F
Dewpoint
-13° C
F
Humidity
54%
Sky Condition
Clear
VFR

METAR KCDA 252217Z AUTO 25011G20KT 10SM CLR M05/M13 A3004 RMK AO2 T10551130

FAA Disclaimer: The data displayed is for advisory purposes only and is not to be used for flight planning or operations.